Dillingham Airport Dillingham US
ICAO: PADL
IATA:
Category: Medium
Scheduled Services:

Elevation: 81 ft
TransAlt. 18000 ft.

Airport Communications:
ATIS:125
AWOS 3:135.55
ANCHORAGE CNTR:132.75
CTAF:123.6
RDO:122.3

PADL Zoom In..

Runways:

(A) RW 01 length 6400 ft width 150 ft
LOC 111.90 / hdg 11

(B) RW 19 length 6400 ft width 150 ft
LOC 111.90 / hdg 191

Location; PADL
Day. 21 / Time. 13.56 Zulu
* Altimeter: 29.38
* Temperature: 07° c. 44.6°f.
* Wind from: 330° Speed 05 kn.
Dewpoint: 03° c.
Visibility: 10 Statute Miles.
Clouds: Overcast 6500 ft.
Conditions: Light Rain.

PADL 211356Z AUTO 33005KT 10SM -RA OVC065 07/03 A2938 RMK AO2 RAB47 SLP953 P0000 T00670033


Wind From 330°
Speed 05 kn.

 
 
jpsmedia.com for Web Design SOUNDCLOUD worldairports.se 2018   terms of use